<?xml version="1.0" encoding="UTF-8"?><gpx xmlns="http://www.topografix.com/GPX/1/1" version="1.1" creator="iOrient"><trk><name>Квест "Код города"</name><trkseg><trkpt lat="56.8353700" lon="53.1280967"><time>2024-11-08T12:55:16.947</time></trkpt><trkpt lat="56.8353150" lon="53.1278900"><time>2024-11-08T12:55:19.823</time></trkpt><trkpt lat="56.8352933" lon="53.1277983"><time>2024-11-08T12:55:20.317</time></trkpt><trkpt lat="56.8353750" lon="53.1276633"><time>2024-11-08T12:55:22.043</time></trkpt><trkpt lat="56.8353983" lon="53.1271817"><time>2024-11-08T12:55:25.067</time></trkpt><trkpt lat="56.8353683" lon="53.1276367"><time>2024-11-08T12:55:26.047</time></trkpt><trkpt lat="56.8353683" lon="53.1276383"><time>2024-11-08T12:55:27.010</time></trkpt><trkpt lat="56.8353900" lon="53.1271700"><time>2024-11-08T12:55:28.100</time></trkpt><trkpt lat="56.8353650" lon="53.1276317"><time>2024-11-08T12:55:28.997</time></trkpt><trkpt lat="56.8353650" lon="53.1276333"><time>2024-11-08T12:55:29.903</time></trkpt><trkpt lat="56.8353733" lon="53.1271683"><time>2024-11-08T12:55:31.547</time></trkpt><trkpt lat="56.8353567" lon="53.1276300"><time>2024-11-08T12:55:32.947</time></trkpt><trkpt lat="56.8353567" lon="53.1276317"><time>2024-11-08T12:55:33.827</time></trkpt><trkpt lat="56.8353333" lon="53.1271267"><time>2024-11-08T12:55:36.090</time></trkpt><trkpt lat="56.8353317" lon="53.1276133"><time>2024-11-08T12:55:37.470</time></trkpt><trkpt lat="56.8353317" lon="53.1276167"><time>2024-11-08T12:55:38.853</time></trkpt><trkpt lat="56.8352983" lon="53.1271567"><time>2024-11-08T12:55:40.597</time></trkpt><trkpt lat="56.8353183" lon="53.1276250"><time>2024-11-08T12:55:41.497</time></trkpt><trkpt lat="56.8353183" lon="53.1276267"><time>2024-11-08T12:55:42.367</time></trkpt><trkpt lat="56.8353000" lon="53.1271433"><time>2024-11-08T12:55:44.093</time></trkpt><trkpt lat="56.8353200" lon="53.1276167"><time>2024-11-08T12:55:44.993</time></trkpt><trkpt lat="56.8353183" lon="53.1276167"><time>2024-11-08T12:55:46.343</time></trkpt><trkpt lat="56.8352433" lon="53.1272567"><time>2024-11-08T12:55:48.600</time></trkpt><trkpt lat="56.8352900" lon="53.1276750"><time>2024-11-08T12:55:50.017</time></trkpt><trkpt lat="56.8352900" lon="53.1276783"><time>2024-11-08T12:55:52.443</time></trkpt><trkpt lat="56.8352333" lon="53.1272950"><time>2024-11-08T12:55:55.127</time></trkpt><trkpt lat="56.8352833" lon="53.1276900"><time>2024-11-08T12:55:58.020</time></trkpt><trkpt lat="56.8352867" lon="53.1276983"><time>2024-11-08T12:56:01.373</time></trkpt><trkpt lat="56.8352133" lon="53.1272967"><time>2024-11-08T12:56:07.083</time></trkpt><trkpt lat="56.8352767" lon="53.1277017"><time>2024-11-08T12:56:08.497</time></trkpt><trkpt lat="56.8352783" lon="53.1277017"><time>2024-11-08T12:56:09.850</time></trkpt><trkpt lat="56.8352367" lon="53.1273000"><time>2024-11-08T12:56:12.087</time></trkpt><trkpt lat="56.8352883" lon="53.1276967"><time>2024-11-08T12:56:12.993</time></trkpt><trkpt lat="56.8352883" lon="53.1276983"><time>2024-11-08T12:56:13.870</time></trkpt><trkpt lat="56.8352517" lon="53.1272467"><time>2024-11-08T12:56:16.077</time></trkpt><trkpt lat="56.8352950" lon="53.1276683"><time>2024-11-08T12:56:17.470</time></trkpt><trkpt lat="56.8352950" lon="53.1276683"><time>2024-11-08T12:56:18.847</time></trkpt><trkpt lat="56.8352633" lon="53.1272067"><time>2024-11-08T12:56:21.090</time></trkpt><trkpt lat="56.8353033" lon="53.1276517"><time>2024-11-08T12:56:22.470</time></trkpt><trkpt lat="56.8353033" lon="53.1276533"><time>2024-11-08T12:56:23.857</time></trkpt><trkpt lat="56.8352733" lon="53.1272467"><time>2024-11-08T12:56:26.097</time></trkpt><trkpt lat="56.8353083" lon="53.1276683"><time>2024-11-08T12:56:27.477</time></trkpt><trkpt lat="56.8353083" lon="53.1276717"><time>2024-11-08T12:56:28.863</time></trkpt><trkpt lat="56.8352433" lon="53.1272267"><time>2024-11-08T12:56:31.073</time></trkpt><trkpt lat="56.8352933" lon="53.1276600"><time>2024-11-08T12:56:33.953</time></trkpt><trkpt lat="56.8352917" lon="53.1276600"><time>2024-11-08T12:56:35.353</time></trkpt><trkpt lat="56.8351950" lon="53.1271517"><time>2024-11-08T12:56:37.590</time></trkpt><trkpt lat="56.8352700" lon="53.1276200"><time>2024-11-08T12:56:38.953</time></trkpt><trkpt lat="56.8351983" lon="53.1271583"><time>2024-11-08T12:56:41.063</time></trkpt><trkpt lat="56.8351433" lon="53.1271483"><time>2024-11-08T12:56:47.037</time></trkpt><trkpt lat="56.8350667" lon="53.1270450"><time>2024-11-08T12:56:49.037</time></trkpt><trkpt lat="56.8350200" lon="53.1270117"><time>2024-11-08T12:56:56.087</time></trkpt><trkpt lat="56.8349717" lon="53.1270167"><time>2024-11-08T12:57:02.087</time></trkpt><trkpt lat="56.8349233" lon="53.1270100"><time>2024-11-08T12:57:11.093</time></trkpt><trkpt lat="56.8349367" lon="53.1269000"><time>2024-11-08T12:57:30.113</time></trkpt><trkpt lat="56.8349700" lon="53.1269767"><time>2024-11-08T12:58:10.070</time></trkpt><trkpt lat="56.8350250" lon="53.1269583"><time>2024-11-08T12:58:30.097</time></trkpt><trkpt lat="56.8350767" lon="53.1269583"><time>2024-11-08T12:58:36.123</time></trkpt><trkpt lat="56.8351267" lon="53.1269700"><time>2024-11-08T12:58:41.097</time></trkpt><trkpt lat="56.8351767" lon="53.1269583"><time>2024-11-08T12:58:45.107</time></trkpt><trkpt lat="56.8353983" lon="53.1272033"><time>2024-11-08T13:02:04.663</time></trkpt><trkpt lat="56.8354433" lon="53.1272000"><time>2024-11-08T13:02:05.150</time></trkpt><trkpt lat="56.8354867" lon="53.1272617"><time>2024-11-08T13:02:06.177</time></trkpt><trkpt lat="56.8354117" lon="53.1274333"><time>2024-11-08T13:02:07.093</time></trkpt><trkpt lat="56.8354300" lon="53.1272567"><time>2024-11-08T13:02:09.083</time></trkpt><trkpt lat="56.8353850" lon="53.1274250"><time>2024-11-08T13:02:09.947</time></trkpt><trkpt lat="56.8354367" lon="53.1272467"><time>2024-11-08T13:02:11.060</time></trkpt><trkpt lat="56.8354800" lon="53.1271867"><time>2024-11-08T13:02:21.080</time></trkpt><trkpt lat="56.8355267" lon="53.1271917"><time>2024-11-08T13:02:34.117</time></trkpt><trkpt lat="56.8355283" lon="53.1271917"><time>2024-11-08T13:02:34.987</time></trkpt></trkseg></trk></gpx>